sensor_id;sensor_type;location;lat;lon;timestamp;P1;durP1;ratioP1;P2;durP2;ratioP2
33802;SDS011;20110;53.120;5.786;2023-04-25T00:01:40;27.02;;;4.25;;
33802;SDS011;20110;53.120;5.786;2023-04-25T00:04:05;20.15;;;3.78;;
33802;SDS011;20110;53.120;5.786;2023-04-25T00:06:32;16.25;;;3.60;;
33802;SDS011;20110;53.120;5.786;2023-04-25T00:09:01;17.23;;;3.78;;
33802;SDS011;20110;53.120;5.786;2023-04-25T00:11:28;17.30;;;4.30;;
33802;SDS011;20110;53.120;5.786;2023-04-25T00:13:56;32.72;;;4.80;;
33802;SDS011;20110;53.120;5.786;2023-04-25T00:16:22;21.90;;;4.13;;
33802;SDS011;20110;53.120;5.786;2023-04-25T00:18:48;25.73;;;3.95;;
33802;SDS011;20110;53.120;5.786;2023-04-25T00:21:17;10.85;;;3.30;;
33802;SDS011;20110;53.120;5.786;2023-04-25T00:23:44;19.70;;;4.10;;
33802;SDS011;20110;53.120;5.786;2023-04-25T00:26:11;15.93;;;3.65;;
33802;SDS011;20110;53.120;5.786;2023-04-25T00:28:37;17.42;;;4.50;;
33802;SDS011;20110;53.120;5.786;2023-04-25T00:31:04;38.00;;;3.70;;
33802;SDS011;20110;53.120;5.786;2023-04-25T00:33:30;18.60;;;3.38;;
33802;SDS011;20110;53.120;5.786;2023-04-25T00:35:56;19.90;;;3.58;;
33802;SDS011;20110;53.120;5.786;2023-04-25T00:38:21;26.75;;;3.58;;
33802;SDS011;20110;53.120;5.786;2023-04-25T00:40:47;14.00;;;3.58;;
33802;SDS011;20110;53.120;5.786;2023-04-25T00:43:13;13.63;;;2.97;;
33802;SDS011;20110;53.120;5.786;2023-04-25T00:45:39;23.48;;;3.33;;
33802;SDS011;20110;53.120;5.786;2023-04-25T00:48:06;9.43;;;3.00;;
33802;SDS011;20110;53.120;5.786;2023-04-25T00:50:35;10.50;;;2.50;;
33802;SDS011;20110;53.120;5.786;2023-04-25T00:53:03;22.05;;;3.20;;
33802;SDS011;20110;53.120;5.786;2023-04-25T00:55:29;13.95;;;2.97;;
33802;SDS011;20110;53.120;5.786;2023-04-25T00:57:56;11.48;;;2.17;;
33802;SDS011;20110;53.120;5.786;2023-04-25T01:00:23;14.80;;;3.08;;
33802;SDS011;20110;53.120;5.786;2023-04-25T01:02:49;19.05;;;2.90;;
33802;SDS011;20110;53.120;5.786;2023-04-25T01:05:15;20.63;;;3.22;;
33802;SDS011;20110;53.120;5.786;2023-04-25T01:07:42;9.75;;;2.78;;
33802;SDS011;20110;53.120;5.786;2023-04-25T01:10:08;17.83;;;2.75;;
33802;SDS011;20110;53.120;5.786;2023-04-25T01:12:34;15.98;;;3.50;;
33802;SDS011;20110;53.120;5.786;2023-04-25T01:15:00;17.73;;;3.58;;
33802;SDS011;20110;53.120;5.786;2023-04-25T01:17:26;19.05;;;3.67;;
33802;SDS011;20110;53.120;5.786;2023-04-25T01:19:54;24.90;;;3.70;;
33802;SDS011;20110;53.120;5.786;2023-04-25T01:22:20;22.42;;;3.72;;
33802;SDS011;20110;53.120;5.786;2023-04-25T01:24:46;20.35;;;3.28;;
33802;SDS011;20110;53.120;5.786;2023-04-25T01:27:12;26.25;;;3.53;;
33802;SDS011;20110;53.120;5.786;2023-04-25T01:29:38;14.93;;;2.97;;
33802;SDS011;20110;53.120;5.786;2023-04-25T01:32:05;24.02;;;3.38;;
33802;SDS011;20110;53.120;5.786;2023-04-25T01:34:31;6.40;;;2.15;;
33802;SDS011;20110;53.120;5.786;2023-04-25T01:36:58;15.57;;;2.22;;
33802;SDS011;20110;53.120;5.786;2023-04-25T01:39:26;11.93;;;2.45;;
33802;SDS011;20110;53.120;5.786;2023-04-25T01:41:53;10.48;;;3.10;;
33802;SDS011;20110;53.120;5.786;2023-04-25T01:44:18;23.40;;;2.47;;
33802;SDS011;20110;53.120;5.786;2023-04-25T01:46:44;9.60;;;2.20;;
33802;SDS011;20110;53.120;5.786;2023-04-25T01:49:10;15.07;;;2.30;;
33802;SDS011;20110;53.120;5.786;2023-04-25T01:51:36;12.55;;;2.28;;
33802;SDS011;20110;53.120;5.786;2023-04-25T01:54:02;6.85;;;2.10;;
33802;SDS011;20110;53.120;5.786;2023-04-25T01:56:32;9.27;;;2.70;;
33802;SDS011;20110;53.120;5.786;2023-04-25T01:59:02;15.90;;;2.38;;
33802;SDS011;20110;53.120;5.786;2023-04-25T02:01:30;10.05;;;1.98;;
33802;SDS011;20110;53.120;5.786;2023-04-25T02:03:56;11.80;;;2.33;;
33802;SDS011;20110;53.120;5.786;2023-04-25T02:06:22;11.68;;;1.85;;
33802;SDS011;20110;53.120;5.786;2023-04-25T02:08:48;3.92;;;1.60;;
33802;SDS011;20110;53.120;5.786;2023-04-25T02:11:14;5.30;;;1.50;;
33802;SDS011;20110;53.120;5.786;2023-04-25T02:13:39;8.27;;;2.03;;
33802;SDS011;20110;53.120;5.786;2023-04-25T02:16:05;10.15;;;1.98;;
33802;SDS011;20110;53.120;5.786;2023-04-25T02:18:31;12.77;;;1.52;;
33802;SDS011;20110;53.120;5.786;2023-04-25T02:20:58;10.68;;;1.70;;
33802;SDS011;20110;53.120;5.786;2023-04-25T02:23:26;13.35;;;2.28;;
33802;SDS011;20110;53.120;5.786;2023-04-25T02:25:52;8.48;;;1.60;;
33802;SDS011;20110;53.120;5.786;2023-04-25T02:28:20;10.18;;;2.05;;
33802;SDS011;20110;53.120;5.786;2023-04-25T02:30:45;7.25;;;1.92;;
33802;SDS011;20110;53.120;5.786;2023-04-25T02:33:11;23.70;;;2.65;;
33802;SDS011;20110;53.120;5.786;2023-04-25T02:35:37;4.95;;;1.67;;
33802;SDS011;20110;53.120;5.786;2023-04-25T02:38:03;7.38;;;1.73;;
33802;SDS011;20110;53.120;5.786;2023-04-25T02:40:29;9.85;;;2.03;;
33802;SDS011;20110;53.120;5.786;2023-04-25T02:42:55;5.93;;;1.70;;
33802;SDS011;20110;53.120;5.786;2023-04-25T02:45:21;11.82;;;2.78;;
33802;SDS011;20110;53.120;5.786;2023-04-25T02:47:47;4.22;;;1.50;;
33802;SDS011;20110;53.120;5.786;2023-04-25T02:50:12;7.03;;;1.92;;
33802;SDS011;20110;53.120;5.786;2023-04-25T02:52:38;11.00;;;2.67;;
33802;SDS011;20110;53.120;5.786;2023-04-25T02:55:04;7.72;;;2.22;;
33802;SDS011;20110;53.120;5.786;2023-04-25T02:57:31;15.20;;;2.00;;
33802;SDS011;20110;53.120;5.786;2023-04-25T02:59:56;9.02;;;1.52;;
33802;SDS011;20110;53.120;5.786;2023-04-25T03:02:22;13.25;;;2.40;;
33802;SDS011;20110;53.120;5.786;2023-04-25T03:04:48;18.25;;;2.00;;
33802;SDS011;20110;53.120;5.786;2023-04-25T03:07:14;7.07;;;2.20;;
33802;SDS011;20110;53.120;5.786;2023-04-25T03:09:40;8.90;;;2.33;;
33802;SDS011;20110;53.120;5.786;2023-04-25T03:12:05;17.10;;;2.53;;
33802;SDS011;20110;53.120;5.786;2023-04-25T03:14:32;16.20;;;2.25;;
33802;SDS011;20110;53.120;5.786;2023-04-25T03:16:58;18.73;;;2.88;;
33802;SDS011;20110;53.120;5.786;2023-04-25T03:19:24;8.15;;;2.10;;
33802;SDS011;20110;53.120;5.786;2023-04-25T03:21:50;10.30;;;2.35;;
33802;SDS011;20110;53.120;5.786;2023-04-25T03:24:15;16.27;;;3.03;;
33802;SDS011;20110;53.120;5.786;2023-04-25T03:26:41;8.23;;;2.70;;
33802;SDS011;20110;53.120;5.786;2023-04-25T03:29:07;18.42;;;1.90;;
33802;SDS011;20110;53.120;5.786;2023-04-25T03:31:33;11.20;;;2.25;;
33802;SDS011;20110;53.120;5.786;2023-04-25T03:33:59;8.90;;;2.40;;
33802;SDS011;20110;53.120;5.786;2023-04-25T03:36:25;11.25;;;1.98;;
33802;SDS011;20110;53.120;5.786;2023-04-25T03:38:51;17.25;;;2.50;;
33802;SDS011;20110;53.120;5.786;2023-04-25T03:41:16;15.13;;;2.78;;
33802;SDS011;20110;53.120;5.786;2023-04-25T03:43:42;9.43;;;2.50;;
33802;SDS011;20110;53.120;5.786;2023-04-25T03:46:08;13.13;;;2.40;;
33802;SDS011;20110;53.120;5.786;2023-04-25T03:48:34;17.23;;;2.20;;
33802;SDS011;20110;53.120;5.786;2023-04-25T03:50:59;13.20;;;2.20;;
33802;SDS011;20110;53.120;5.786;2023-04-25T03:53:25;19.50;;;1.92;;
33802;SDS011;20110;53.120;5.786;2023-04-25T03:55:51;6.13;;;1.55;;
33802;SDS011;20110;53.120;5.786;2023-04-25T03:58:17;9.82;;;1.85;;
33802;SDS011;20110;53.120;5.786;2023-04-25T04:00:43;10.45;;;1.70;;
33802;SDS011;20110;53.120;5.786;2023-04-25T04:03:08;8.82;;;1.92;;
33802;SDS011;20110;53.120;5.786;2023-04-25T04:05:35;20.20;;;2.42;;
33802;SDS011;20110;53.120;5.786;2023-04-25T04:08:02;6.70;;;1.98;;
33802;SDS011;20110;53.120;5.786;2023-04-25T04:10:28;10.35;;;2.10;;
33802;SDS011;20110;53.120;5.786;2023-04-25T04:12:54;8.70;;;1.95;;
33802;SDS011;20110;53.120;5.786;2023-04-25T04:15:19;14.93;;;1.92;;
33802;SDS011;20110;53.120;5.786;2023-04-25T04:17:45;17.65;;;2.05;;
33802;SDS011;20110;53.120;5.786;2023-04-25T04:20:13;14.73;;;2.80;;
33802;SDS011;20110;53.120;5.786;2023-04-25T04:22:39;15.80;;;2.58;;
33802;SDS011;20110;53.120;5.786;2023-04-25T04:25:05;21.77;;;2.25;;
33802;SDS011;20110;53.120;5.786;2023-04-25T04:27:31;9.63;;;1.92;;
33802;SDS011;20110;53.120;5.786;2023-04-25T04:29:57;9.25;;;2.42;;
33802;SDS011;20110;53.120;5.786;2023-04-25T04:32:23;12.23;;;2.17;;
33802;SDS011;20110;53.120;5.786;2023-04-25T04:34:50;15.57;;;2.30;;
33802;SDS011;20110;53.120;5.786;2023-04-25T04:37:17;15.20;;;2.58;;
33802;SDS011;20110;53.120;5.786;2023-04-25T04:39:43;6.03;;;1.83;;
33802;SDS011;20110;53.120;5.786;2023-04-25T04:42:09;9.00;;;2.22;;
33802;SDS011;20110;53.120;5.786;2023-04-25T04:44:36;14.85;;;1.80;;
33802;SDS011;20110;53.120;5.786;2023-04-25T04:47:04;4.28;;;1.83;;
33802;SDS011;20110;53.120;5.786;2023-04-25T04:49:31;9.65;;;2.15;;
33802;SDS011;20110;53.120;5.786;2023-04-25T04:51:57;3.78;;;1.08;;
33802;SDS011;20110;53.120;5.786;2023-04-25T04:54:25;19.00;;;2.63;;
33802;SDS011;20110;53.120;5.786;2023-04-25T04:56:52;12.32;;;2.60;;
33802;SDS011;20110;53.120;5.786;2023-04-25T04:59:18;20.75;;;2.45;;
33802;SDS011;20110;53.120;5.786;2023-04-25T05:01:43;5.15;;;1.80;;
33802;SDS011;20110;53.120;5.786;2023-04-25T05:04:10;14.68;;;2.05;;
33802;SDS011;20110;53.120;5.786;2023-04-25T05:06:36;8.32;;;1.75;;
33802;SDS011;20110;53.120;5.786;2023-04-25T05:09:02;8.23;;;1.83;;
33802;SDS011;20110;53.120;5.786;2023-04-25T05:11:28;10.40;;;1.98;;
33802;SDS011;20110;53.120;5.786;2023-04-25T05:13:54;9.30;;;1.67;;
33802;SDS011;20110;53.120;5.786;2023-04-25T05:16:20;6.32;;;1.88;;
33802;SDS011;20110;53.120;5.786;2023-04-25T05:18:46;14.57;;;2.00;;
33802;SDS011;20110;53.120;5.786;2023-04-25T05:21:12;9.30;;;1.67;;
33802;SDS011;20110;53.120;5.786;2023-04-25T05:23:38;11.25;;;2.50;;
33802;SDS011;20110;53.120;5.786;2023-04-25T05:26:04;18.42;;;2.10;;
33802;SDS011;20110;53.120;5.786;2023-04-25T05:28:30;8.18;;;1.70;;
33802;SDS011;20110;53.120;5.786;2023-04-25T05:30:56;8.80;;;1.60;;
33802;SDS011;20110;53.120;5.786;2023-04-25T05:33:22;11.05;;;1.73;;
33802;SDS011;20110;53.120;5.786;2023-04-25T05:35:48;9.25;;;1.90;;
33802;SDS011;20110;53.120;5.786;2023-04-25T05:38:15;10.52;;;1.67;;
33802;SDS011;20110;53.120;5.786;2023-04-25T05:40:42;3.95;;;1.58;;
33802;SDS011;20110;53.120;5.786;2023-04-25T05:43:07;7.28;;;1.40;;
33802;SDS011;20110;53.120;5.786;2023-04-25T05:45:33;11.77;;;1.80;;
33802;SDS011;20110;53.120;5.786;2023-04-25T05:47:59;13.02;;;1.90;;
33802;SDS011;20110;53.120;5.786;2023-04-25T05:50:25;4.45;;;1.75;;
33802;SDS011;20110;53.120;5.786;2023-04-25T05:52:51;11.65;;;2.13;;
33802;SDS011;20110;53.120;5.786;2023-04-25T05:55:17;19.83;;;2.67;;
33802;SDS011;20110;53.120;5.786;2023-04-25T05:57:44;13.55;;;1.83;;
33802;SDS011;20110;53.120;5.786;2023-04-25T06:00:11;19.95;;;2.88;;
33802;SDS011;20110;53.120;5.786;2023-04-25T06:02:40;11.80;;;1.95;;
33802;SDS011;20110;53.120;5.786;2023-04-25T06:05:07;10.80;;;1.52;;
33802;SDS011;20110;53.120;5.786;2023-04-25T06:07:33;10.55;;;1.60;;
33802;SDS011;20110;53.120;5.786;2023-04-25T06:09:59;5.00;;;1.60;;
33802;SDS011;20110;53.120;5.786;2023-04-25T06:12:25;9.38;;;1.20;;
33802;SDS011;20110;53.120;5.786;2023-04-25T06:14:51;10.55;;;1.40;;
33802;SDS011;20110;53.120;5.786;2023-04-25T06:17:17;10.68;;;1.25;;
33802;SDS011;20110;53.120;5.786;2023-04-25T06:19:43;5.65;;;1.20;;
33802;SDS011;20110;53.120;5.786;2023-04-25T06:22:09;4.82;;;1.42;;
33802;SDS011;20110;53.120;5.786;2023-04-25T06:24:35;7.75;;;1.67;;
33802;SDS011;20110;53.120;5.786;2023-04-25T06:27:01;6.32;;;1.08;;
33802;SDS011;20110;53.120;5.786;2023-04-25T06:29:27;4.35;;;1.52;;
33802;SDS011;20110;53.120;5.786;2023-04-25T06:31:53;12.48;;;2.13;;
33802;SDS011;20110;53.120;5.786;2023-04-25T06:34:19;7.60;;;1.83;;
33802;SDS011;20110;53.120;5.786;2023-04-25T06:36:45;8.38;;;1.20;;
33802;SDS011;20110;53.120;5.786;2023-04-25T06:39:12;9.95;;;2.20;;
33802;SDS011;20110;53.120;5.786;2023-04-25T06:41:38;10.68;;;1.80;;
33802;SDS011;20110;53.120;5.786;2023-04-25T06:44:04;21.20;;;2.20;;
33802;SDS011;20110;53.120;5.786;2023-04-25T06:46:29;10.32;;;2.42;;
33802;SDS011;20110;53.120;5.786;2023-04-25T06:48:55;13.27;;;1.77;;
33802;SDS011;20110;53.120;5.786;2023-04-25T06:51:21;9.73;;;2.38;;
33802;SDS011;20110;53.120;5.786;2023-04-25T06:53:47;8.20;;;1.88;;
33802;SDS011;20110;53.120;5.786;2023-04-25T06:56:13;6.95;;;1.40;;
33802;SDS011;20110;53.120;5.786;2023-04-25T06:58:38;10.43;;;2.47;;
33802;SDS011;20110;53.120;5.786;2023-04-25T07:01:04;13.02;;;1.88;;
33802;SDS011;20110;53.120;5.786;2023-04-25T07:03:30;16.90;;;1.80;;
33802;SDS011;20110;53.120;5.786;2023-04-25T07:05:56;16.70;;;1.88;;
33802;SDS011;20110;53.120;5.786;2023-04-25T07:08:22;4.30;;;1.52;;
33802;SDS011;20110;53.120;5.786;2023-04-25T07:10:48;9.02;;;0.88;;
33802;SDS011;20110;53.120;5.786;2023-04-25T07:13:13;8.80;;;1.65;;
33802;SDS011;20110;53.120;5.786;2023-04-25T07:15:39;5.68;;;1.27;;
33802;SDS011;20110;53.120;5.786;2023-04-25T07:18:05;6.85;;;1.63;;
33802;SDS011;20110;53.120;5.786;2023-04-25T07:20:31;2.28;;;0.88;;
33802;SDS011;20110;53.120;5.786;2023-04-25T07:22:58;9.95;;;1.77;;
33802;SDS011;20110;53.120;5.786;2023-04-25T07:25:25;4.35;;;1.27;;
33802;SDS011;20110;53.120;5.786;2023-04-25T07:27:51;13.38;;;1.50;;
33802;SDS011;20110;53.120;5.786;2023-04-25T07:30:16;10.23;;;1.55;;
33802;SDS011;20110;53.120;5.786;2023-04-25T07:32:43;5.88;;;1.45;;
33802;SDS011;20110;53.120;5.786;2023-04-25T07:35:10;2.70;;;1.30;;
33802;SDS011;20110;53.120;5.786;2023-04-25T07:37:35;6.13;;;1.83;;
33802;SDS011;20110;53.120;5.786;2023-04-25T07:40:05;8.13;;;2.08;;
33802;SDS011;20110;53.120;5.786;2023-04-25T07:42:32;12.35;;;1.48;;
33802;SDS011;20110;53.120;5.786;2023-04-25T07:44:58;8.45;;;1.40;;
33802;SDS011;20110;53.120;5.786;2023-04-25T07:47:25;4.00;;;1.40;;
33802;SDS011;20110;53.120;5.786;2023-04-25T07:49:51;2.90;;;1.15;;
33802;SDS011;20110;53.120;5.786;2023-04-25T07:52:17;10.65;;;2.05;;
33802;SDS011;20110;53.120;5.786;2023-04-25T07:54:43;4.05;;;1.48;;
33802;SDS011;20110;53.120;5.786;2023-04-25T07:57:10;5.95;;;1.55;;
33802;SDS011;20110;53.120;5.786;2023-04-25T07:59:36;7.63;;;1.60;;
33802;SDS011;20110;53.120;5.786;2023-04-25T08:02:01;6.15;;;1.55;;
33802;SDS011;20110;53.120;5.786;2023-04-25T08:04:27;9.25;;;1.50;;
33802;SDS011;20110;53.120;5.786;2023-04-25T08:06:54;6.25;;;1.65;;
33802;SDS011;20110;53.120;5.786;2023-04-25T08:09:20;3.92;;;1.52;;
33802;SDS011;20110;53.120;5.786;2023-04-25T08:11:47;7.70;;;1.52;;
33802;SDS011;20110;53.120;5.786;2023-04-25T08:14:13;7.30;;;1.58;;
33802;SDS011;20110;53.120;5.786;2023-04-25T08:16:39;10.82;;;1.90;;
33802;SDS011;20110;53.120;5.786;2023-04-25T08:19:05;6.68;;;1.40;;
33802;SDS011;20110;53.120;5.786;2023-04-25T08:21:31;8.82;;;1.75;;
33802;SDS011;20110;53.120;5.786;2023-04-25T08:23:58;6.22;;;1.42;;
33802;SDS011;20110;53.120;5.786;2023-04-25T08:26:24;8.10;;;1.80;;
33802;SDS011;20110;53.120;5.786;2023-04-25T08:28:51;6.47;;;1.73;;
33802;SDS011;20110;53.120;5.786;2023-04-25T08:31:17;11.90;;;1.75;;
33802;SDS011;20110;53.120;5.786;2023-04-25T08:33:43;6.28;;;1.45;;
33802;SDS011;20110;53.120;5.786;2023-04-25T08:36:10;9.15;;;2.03;;
33802;SDS011;20110;53.120;5.786;2023-04-25T08:38:36;12.55;;;2.03;;
33802;SDS011;20110;53.120;5.786;2023-04-25T08:41:02;8.88;;;1.98;;
33802;SDS011;20110;53.120;5.786;2023-04-25T08:43:29;5.70;;;1.52;;
33802;SDS011;20110;53.120;5.786;2023-04-25T08:45:58;12.63;;;2.22;;
33802;SDS011;20110;53.120;5.786;2023-04-25T08:48:29;10.98;;;2.47;;
33802;SDS011;20110;53.120;5.786;2023-04-25T08:50:59;5.13;;;1.73;;
33802;SDS011;20110;53.120;5.786;2023-04-25T08:53:32;9.05;;;1.83;;
33802;SDS011;20110;53.120;5.786;2023-04-25T08:55:59;9.00;;;2.80;;
33802;SDS011;20110;53.120;5.786;2023-04-25T08:58:27;12.75;;;2.63;;
33802;SDS011;20110;53.120;5.786;2023-04-25T09:00:53;8.98;;;1.52;;
33802;SDS011;20110;53.120;5.786;2023-04-25T09:03:20;6.97;;;1.65;;
33802;SDS011;20110;53.120;5.786;2023-04-25T09:05:46;6.28;;;1.60;;
33802;SDS011;20110;53.120;5.786;2023-04-25T09:08:13;6.35;;;1.73;;
33802;SDS011;20110;53.120;5.786;2023-04-25T09:10:39;16.33;;;2.45;;
33802;SDS011;20110;53.120;5.786;2023-04-25T09:13:06;14.55;;;1.83;;
33802;SDS011;20110;53.120;5.786;2023-04-25T09:15:51;10.38;;;1.98;;
33802;SDS011;20110;53.120;5.786;2023-04-25T09:18:29;7.38;;;2.28;;
33802;SDS011;20110;53.120;5.786;2023-04-25T09:21:07;11.45;;;1.70;;
33802;SDS011;20110;53.120;5.786;2023-04-25T09:23:44;5.88;;;1.63;;
33802;SDS011;20110;53.120;5.786;2023-04-25T09:26:13;5.07;;;2.88;;
33802;SDS011;20110;53.120;5.786;2023-04-25T09:28:42;6.22;;;1.58;;
33802;SDS011;20110;53.120;5.786;2023-04-25T09:31:09;3.58;;;1.45;;
33802;SDS011;20110;53.120;5.786;2023-04-25T09:33:36;6.97;;;1.10;;
33802;SDS011;20110;53.120;5.786;2023-04-25T09:36:07;4.55;;;1.20;;
33802;SDS011;20110;53.120;5.786;2023-04-25T09:38:43;6.22;;;1.42;;
33802;SDS011;20110;53.120;5.786;2023-04-25T09:41:11;4.68;;;1.52;;
33802;SDS011;20110;53.120;5.786;2023-04-25T09:43:37;3.35;;;1.08;;
33802;SDS011;20110;53.120;5.786;2023-04-25T09:46:08;7.70;;;1.30;;
33802;SDS011;20110;53.120;5.786;2023-04-25T09:48:36;3.38;;;1.00;;
33802;SDS011;20110;53.120;5.786;2023-04-25T09:53:39;3.35;;;1.20;;
33802;SDS011;20110;53.120;5.786;2023-04-25T09:56:09;7.65;;;1.70;;
33802;SDS011;20110;53.120;5.786;2023-04-25T09:58:37;8.40;;;1.92;;
33802;SDS011;20110;53.120;5.786;2023-04-25T10:01:06;5.82;;;1.60;;
33802;SDS011;20110;53.120;5.786;2023-04-25T10:03:34;2.63;;;1.30;;
33802;SDS011;20110;53.120;5.786;2023-04-25T10:06:08;8.90;;;1.58;;
33802;SDS011;20110;53.120;5.786;2023-04-25T10:08:39;7.78;;;1.70;;
33802;SDS011;20110;53.120;5.786;2023-04-25T10:11:08;3.95;;;1.77;;
33802;SDS011;20110;53.120;5.786;2023-04-25T10:13:34;5.03;;;1.10;;
33802;SDS011;20110;53.120;5.786;2023-04-25T10:16:02;11.90;;;2.17;;
33802;SDS011;20110;53.120;5.786;2023-04-25T10:18:30;7.63;;;2.03;;
33802;SDS011;20110;53.120;5.786;2023-04-25T10:20:59;7.07;;;1.45;;
33802;SDS011;20110;53.120;5.786;2023-04-25T10:23:29;4.53;;;1.33;;
33802;SDS011;20110;53.120;5.786;2023-04-25T10:25:56;5.07;;;1.58;;
33802;SDS011;20110;53.120;5.786;2023-04-25T10:28:23;4.57;;;1.70;;
33802;SDS011;20110;53.120;5.786;2023-04-25T10:31:00;9.35;;;2.00;;
33802;SDS011;20110;53.120;5.786;2023-04-25T10:33:35;5.25;;;2.00;;
33802;SDS011;20110;53.120;5.786;2023-04-25T10:39:02;7.43;;;2.07;;
33802;SDS011;20110;53.120;5.786;2023-04-25T10:41:46;11.93;;;2.30;;
33802;SDS011;20110;53.120;5.786;2023-04-25T10:44:18;5.53;;;1.65;;
33802;SDS011;20110;53.120;5.786;2023-04-25T10:46:44;12.40;;;1.55;;
33802;SDS011;20110;53.120;5.786;2023-04-25T10:49:10;3.35;;;1.20;;
33802;SDS011;20110;53.120;5.786;2023-04-25T10:54:48;7.95;;;2.00;;
33802;SDS011;20110;53.120;5.786;2023-04-25T10:57:28;11.77;;;2.22;;
33802;SDS011;20110;53.120;5.786;2023-04-25T10:59:58;8.82;;;1.40;;
33802;SDS011;20110;53.120;5.786;2023-04-25T11:02:37;8.52;;;1.40;;
33802;SDS011;20110;53.120;5.786;2023-04-25T11:05:08;1.25;;;1.10;;
33802;SDS011;20110;53.120;5.786;2023-04-25T11:10:21;2.63;;;1.08;;
33802;SDS011;20110;53.120;5.786;2023-04-25T11:12:52;2.17;;;1.00;;
33802;SDS011;20110;53.120;5.786;2023-04-25T11:15:18;4.55;;;1.00;;
33802;SDS011;20110;53.120;5.786;2023-04-25T11:17:45;4.32;;;1.60;;
33802;SDS011;20110;53.120;5.786;2023-04-25T11:20:11;8.57;;;1.95;;
33802;SDS011;20110;53.120;5.786;2023-04-25T11:22:40;14.18;;;1.90;;
33802;SDS011;20110;53.120;5.786;2023-04-25T11:25:09;8.20;;;1.90;;
33802;SDS011;20110;53.120;5.786;2023-04-25T11:27:50;9.07;;;1.77;;
33802;SDS011;20110;53.120;5.786;2023-04-25T11:30:22;9.52;;;2.03;;
33802;SDS011;20110;53.120;5.786;2023-04-25T11:32:50;6.72;;;2.10;;
33802;SDS011;20110;53.120;5.786;2023-04-25T11:35:17;10.55;;;2.33;;
33802;SDS011;20110;53.120;5.786;2023-04-25T11:37:45;12.98;;;1.77;;
33802;SDS011;20110;53.120;5.786;2023-04-25T11:40:12;7.20;;;1.90;;
33802;SDS011;20110;53.120;5.786;2023-04-25T11:42:38;11.85;;;2.10;;
33802;SDS011;20110;53.120;5.786;2023-04-25T11:45:09;8.23;;;2.00;;
33802;SDS011;20110;53.120;5.786;2023-04-25T11:47:36;9.82;;;2.33;;
33802;SDS011;20110;53.120;5.786;2023-04-25T11:50:03;6.93;;;1.67;;
33802;SDS011;20110;53.120;5.786;2023-04-25T11:52:39;7.70;;;2.58;;
33802;SDS011;20110;53.120;5.786;2023-04-25T11:55:07;6.00;;;2.15;;
33802;SDS011;20110;53.120;5.786;2023-04-25T11:57:42;6.60;;;2.05;;
33802;SDS011;20110;53.120;5.786;2023-04-25T12:00:12;10.05;;;1.90;;
33802;SDS011;20110;53.120;5.786;2023-04-25T12:02:53;3.17;;;1.60;;
33802;SDS011;20110;53.120;5.786;2023-04-25T12:05:27;12.88;;;1.73;;
33802;SDS011;20110;53.120;5.786;2023-04-25T12:07:58;6.55;;;1.40;;
33802;SDS011;20110;53.120;5.786;2023-04-25T12:10:38;5.78;;;1.85;;
33802;SDS011;20110;53.120;5.786;2023-04-25T12:13:22;5.53;;;1.80;;
33802;SDS011;20110;53.120;5.786;2023-04-25T12:15:51;6.60;;;1.73;;
33802;SDS011;20110;53.120;5.786;2023-04-25T12:18:24;6.50;;;1.95;;
33802;SDS011;20110;53.120;5.786;2023-04-25T12:20:53;6.95;;;2.15;;
33802;SDS011;20110;53.120;5.786;2023-04-25T12:23:27;6.20;;;1.40;;
33802;SDS011;20110;53.120;5.786;2023-04-25T12:25:55;11.70;;;2.65;;
33802;SDS011;20110;53.120;5.786;2023-04-25T12:28:22;7.18;;;1.42;;
33802;SDS011;20110;53.120;5.786;2023-04-25T12:31:01;6.20;;;2.17;;
33802;SDS011;20110;53.120;5.786;2023-04-25T12:33:32;5.70;;;1.90;;
33802;SDS011;20110;53.120;5.786;2023-04-25T12:36:00;6.57;;;2.00;;
33802;SDS011;20110;53.120;5.786;2023-04-25T12:38:41;6.70;;;2.08;;
33802;SDS011;20110;53.120;5.786;2023-04-25T12:41:07;7.65;;;1.77;;
33802;SDS011;20110;53.120;5.786;2023-04-25T12:43:34;5.88;;;1.38;;
33802;SDS011;20110;53.120;5.786;2023-04-25T12:46:00;6.65;;;1.35;;
33802;SDS011;20110;53.120;5.786;2023-04-25T12:48:26;7.57;;;2.00;;
33802;SDS011;20110;53.120;5.786;2023-04-25T12:50:52;10.40;;;1.92;;
33802;SDS011;20110;53.120;5.786;2023-04-25T12:53:22;9.35;;;1.73;;
33802;SDS011;20110;53.120;5.786;2023-04-25T12:55:51;6.50;;;1.67;;
33802;SDS011;20110;53.120;5.786;2023-04-25T12:58:18;8.75;;;1.83;;
33802;SDS011;20110;53.120;5.786;2023-04-25T13:00:45;2.40;;;1.42;;
33802;SDS011;20110;53.120;5.786;2023-04-25T13:03:11;10.50;;;1.60;;
33802;SDS011;20110;53.120;5.786;2023-04-25T13:05:37;8.30;;;1.85;;
33802;SDS011;20110;53.120;5.786;2023-04-25T13:08:04;7.78;;;2.17;;
33802;SDS011;20110;53.120;5.786;2023-04-25T13:10:30;8.15;;;1.58;;
33802;SDS011;20110;53.120;5.786;2023-04-25T13:12:56;4.88;;;1.70;;
33802;SDS011;20110;53.120;5.786;2023-04-25T13:15:22;9.18;;;1.92;;
33802;SDS011;20110;53.120;5.786;2023-04-25T13:17:48;4.75;;;1.80;;
33802;SDS011;20110;53.120;5.786;2023-04-25T13:20:14;12.43;;;2.33;;
33802;SDS011;20110;53.120;5.786;2023-04-25T13:22:41;4.50;;;1.50;;
33802;SDS011;20110;53.120;5.786;2023-04-25T13:25:08;5.00;;;1.83;;
33802;SDS011;20110;53.120;5.786;2023-04-25T13:27:34;5.90;;;1.52;;
33802;SDS011;20110;53.120;5.786;2023-04-25T13:30:03;5.45;;;1.40;;
33802;SDS011;20110;53.120;5.786;2023-04-25T13:32:35;10.23;;;1.65;;
33802;SDS011;20110;53.120;5.786;2023-04-25T13:35:04;11.13;;;1.92;;
33802;SDS011;20110;53.120;5.786;2023-04-25T13:37:36;9.27;;;1.80;;
33802;SDS011;20110;53.120;5.786;2023-04-25T13:40:03;12.32;;;1.75;;
33802;SDS011;20110;53.120;5.786;2023-04-25T13:42:34;7.88;;;2.30;;
33802;SDS011;20110;53.120;5.786;2023-04-25T13:45:01;9.82;;;2.08;;
33802;SDS011;20110;53.120;5.786;2023-04-25T13:47:28;10.45;;;1.77;;
33802;SDS011;20110;53.120;5.786;2023-04-25T13:49:55;4.95;;;1.60;;
33802;SDS011;20110;53.120;5.786;2023-04-25T13:52:21;6.00;;;2.15;;
33802;SDS011;20110;53.120;5.786;2023-04-25T13:54:49;8.65;;;1.98;;
33802;SDS011;20110;53.120;5.786;2023-04-25T13:57:16;10.15;;;2.50;;
33802;SDS011;20110;53.120;5.786;2023-04-25T13:59:42;16.52;;;1.70;;
33802;SDS011;20110;53.120;5.786;2023-04-25T14:02:08;11.95;;;2.17;;
33802;SDS011;20110;53.120;5.786;2023-04-25T14:04:34;9.50;;;2.40;;
33802;SDS011;20110;53.120;5.786;2023-04-25T14:07:00;6.80;;;1.67;;
33802;SDS011;20110;53.120;5.786;2023-04-25T14:09:28;13.25;;;2.63;;
33802;SDS011;20110;53.120;5.786;2023-04-25T14:11:54;13.55;;;2.50;;
33802;SDS011;20110;53.120;5.786;2023-04-25T14:14:21;7.93;;;2.35;;
33802;SDS011;20110;53.120;5.786;2023-04-25T14:16:48;6.15;;;1.75;;
33802;SDS011;20110;53.120;5.786;2023-04-25T14:19:15;11.40;;;2.20;;
33802;SDS011;20110;53.120;5.786;2023-04-25T14:21:42;8.50;;;1.85;;
33802;SDS011;20110;53.120;5.786;2023-04-25T14:24:09;9.02;;;2.13;;
33802;SDS011;20110;53.120;5.786;2023-04-25T14:26:38;12.18;;;2.65;;
33802;SDS011;20110;53.120;5.786;2023-04-25T14:29:06;9.50;;;1.77;;
33802;SDS011;20110;53.120;5.786;2023-04-25T14:31:33;11.85;;;1.98;;
33802;SDS011;20110;53.120;5.786;2023-04-25T14:34:01;15.70;;;2.58;;
33802;SDS011;20110;53.120;5.786;2023-04-25T14:36:28;12.20;;;2.03;;
33802;SDS011;20110;53.120;5.786;2023-04-25T14:38:54;22.98;;;2.55;;
33802;SDS011;20110;53.120;5.786;2023-04-25T14:41:20;10.48;;;1.67;;
33802;SDS011;20110;53.120;5.786;2023-04-25T14:43:46;12.48;;;2.42;;
33802;SDS011;20110;53.120;5.786;2023-04-25T14:46:12;9.75;;;1.65;;
33802;SDS011;20110;53.120;5.786;2023-04-25T14:48:38;8.60;;;1.83;;
33802;SDS011;20110;53.120;5.786;2023-04-25T14:51:04;6.47;;;1.83;;
33802;SDS011;20110;53.120;5.786;2023-04-25T14:53:30;5.97;;;1.40;;